ACA8553 KJFK-CYYZ
Flight info
| Callsign | ACA8553 |
|---|---|
| Flight time | 1h 4m |
| Altitude | 18000 |
| Route | GAYEL Q818 WOZEE LINNG3 |
| Aircraft | A319/M-SDE3FGHIRWY/LB1 |
Departure
| Time | 2026-05-07 22:01 |
|---|---|
| Airport | John F. Kennedy International Airport (KJFK) |
Arrival
| Time | 2026-05-07 23:05 |
|---|---|
| Airport | Toronto Pearson International Airport (CYYZ) |
| Time | Latitude | Longitude | Altitude | Speed | Heading |
|---|---|---|---|---|---|
| 2026-05-07 21:50 | 40.64117 | -73.77807 | 23 ft | 0 kts | 337° |
| 2026-05-07 21:51 | 40.64117 | -73.77806 | 23 ft | 0 kts | 337° |
| 2026-05-07 21:53 | 40.64102 | -73.77798 | 25 ft | 4 kts | 317° |
| 2026-05-07 21:53 | 40.64095 | -73.77775 | 23 ft | 3 kts | 243° |
| 2026-05-07 21:53 | 40.64106 | -73.77750 | 23 ft | 2 kts | 240° |
| 2026-05-07 21:54 | 40.64106 | -73.77748 | 23 ft | 0 kts | 240° |
| 2026-05-07 21:56 | 40.64106 | -73.77749 | 23 ft | 0 kts | 240° |
| 2026-05-07 21:56 | 40.64104 | -73.77753 | 23 ft | 2 kts | 240° |
| 2026-05-07 21:56 | 40.64091 | -73.77783 | 23 ft | 6 kts | 240° |
| 2026-05-07 21:56 | 40.64065 | -73.77845 | 24 ft | 10 kts | 242° |
| 2026-05-07 21:57 | 40.64032 | -73.77927 | 24 ft | 10 kts | 241° |
| 2026-05-07 21:57 | 40.63972 | -73.77947 | 23 ft | 9 kts | 173° |
| 2026-05-07 21:57 | 40.63907 | -73.77937 | 23 ft | 10 kts | 173° |
| 2026-05-07 21:57 | 40.63838 | -73.77926 | 23 ft | 11 kts | 173° |
| 2026-05-07 21:58 | 40.63750 | -73.77912 | 24 ft | 14 kts | 172° |
| 2026-05-07 21:58 | 40.63643 | -73.77893 | 23 ft | 17 kts | 173° |
| 2026-05-07 21:58 | 40.63555 | -73.77828 | 23 ft | 15 kts | 123° |
| 2026-05-07 21:58 | 40.63477 | -73.77850 | 24 ft | 11 kts | 212° |
| 2026-05-07 21:59 | 40.63412 | -73.77904 | 24 ft | 11 kts | 213° |
| 2026-05-07 21:59 | 40.63340 | -73.77964 | 26 ft | 13 kts | 209° |
| 2026-05-07 21:59 | 40.63252 | -73.78003 | 27 ft | 13 kts | 195° |
| 2026-05-07 21:59 | 40.63208 | -73.78080 | 28 ft | 14 kts | 290° |
| 2026-05-07 22:00 | 40.63262 | -73.78199 | 22 ft | 17 kts | 301° |
| 2026-05-07 22:00 | 40.63399 | -73.78497 | 23 ft | 71 kts | 301° |
| 2026-05-07 22:00 | 40.63760 | -73.79296 | 22 ft | 130 kts | 301° |
| 2026-05-07 22:00 | 40.64296 | -73.80500 | 127 ft | 165 kts | 303° |
| 2026-05-07 22:01 | 40.64865 | -73.81812 | 752 ft | 166 kts | 302° |
| 2026-05-07 22:01 | 40.65420 | -73.83142 | 1393 ft | 166 kts | 299° |
| 2026-05-07 22:01 | 40.66190 | -73.84277 | 1985 ft | 170 kts | 326° |
| 2026-05-07 22:01 | 40.67262 | -73.84970 | 2510 ft | 179 kts | 334° |
| 2026-05-07 22:02 | 40.68454 | -73.85709 | 2823 ft | 201 kts | 333° |
| 2026-05-07 22:02 | 40.69800 | -73.86573 | 3127 ft | 229 kts | 332° |
| 2026-05-07 22:02 | 40.71283 | -73.87571 | 3603 ft | 250 kts | 332° |
| 2026-05-07 22:02 | 40.72867 | -73.88585 | 4459 ft | 255 kts | 333° |
| 2026-05-07 22:03 | 40.74459 | -73.89640 | 5392 ft | 258 kts | 332° |
| 2026-05-07 22:03 | 40.76058 | -73.90773 | 6287 ft | 262 kts | 330° |
| 2026-05-07 22:03 | 40.77663 | -73.91941 | 7173 ft | 265 kts | 329° |
| 2026-05-07 22:03 | 40.79287 | -73.93108 | 8080 ft | 267 kts | 329° |
| 2026-05-07 22:04 | 40.80933 | -73.94280 | 8972 ft | 270 kts | 328° |
| 2026-05-07 22:04 | 40.82588 | -73.95446 | 9919 ft | 269 kts | 328° |
| 2026-05-07 22:04 | 40.84249 | -73.96563 | 10767 ft | 271 kts | 327° |
| 2026-05-07 22:04 | 40.85993 | -73.97720 | 11186 ft | 289 kts | 326° |
| 2026-05-07 22:05 | 40.87839 | -73.98960 | 11542 ft | 308 kts | 326° |
| 2026-05-07 22:05 | 40.89793 | -74.00335 | 11799 ft | 328 kts | 324° |
| 2026-05-07 22:05 | 40.91809 | -74.01769 | 12585 ft | 328 kts | 324° |
| 2026-05-07 22:05 | 40.93834 | -74.03165 | 13493 ft | 327 kts | 324° |
| 2026-05-07 22:06 | 40.95887 | -74.04574 | 13981 ft | 337 kts | 323° |
| 2026-05-07 22:06 | 40.97976 | -74.06038 | 14569 ft | 341 kts | 323° |
| 2026-05-07 22:06 | 41.00061 | -74.07490 | 15177 ft | 346 kts | 323° |
| 2026-05-07 22:06 | 41.02210 | -74.08975 | 15781 ft | 350 kts | 323° |
| 2026-05-07 22:07 | 41.04382 | -74.10469 | 16412 ft | 354 kts | 323° |
| 2026-05-07 22:07 | 41.06592 | -74.11985 | 16970 ft | 359 kts | 322° |
| 2026-05-07 22:07 | 41.08827 | -74.13528 | 17494 ft | 365 kts | 322° |
| 2026-05-07 22:07 | 41.11089 | -74.15100 | 18088 ft | 370 kts | 322° |
| 2026-05-07 22:08 | 41.13383 | -74.16704 | 18624 ft | 373 kts | 322° |
| 2026-05-07 22:08 | 41.15695 | -74.18310 | 19180 ft | 376 kts | 322° |
| 2026-05-07 22:08 | 41.17993 | -74.19944 | 19817 ft | 376 kts | 321° |
| 2026-05-07 22:08 | 41.20316 | -74.21563 | 20403 ft | 378 kts | 322° |
| 2026-05-07 22:09 | 41.22671 | -74.23165 | 20936 ft | 382 kts | 322° |
| 2026-05-07 22:09 | 41.25045 | -74.24776 | 21475 ft | 384 kts | 322° |
| 2026-05-07 22:09 | 41.27424 | -74.26411 | 22018 ft | 386 kts | 322° |
| 2026-05-07 22:09 | 41.29815 | -74.28076 | 22509 ft | 389 kts | 321° |
| 2026-05-07 22:10 | 41.32185 | -74.29748 | 22980 ft | 392 kts | 321° |
| 2026-05-07 22:10 | 41.34597 | -74.31454 | 23533 ft | 394 kts | 321° |
| 2026-05-07 22:10 | 41.37019 | -74.33167 | 23971 ft | 395 kts | 321° |
| 2026-05-07 22:10 | 41.39306 | -74.35114 | 24326 ft | 386 kts | 311° |
| 2026-05-07 22:11 | 41.41214 | -74.37552 | 24721 ft | 376 kts | 301° |
| 2026-05-07 22:11 | 41.42709 | -74.40356 | 25135 ft | 367 kts | 292° |
| 2026-05-07 22:11 | 41.43894 | -74.43354 | 25538 ft | 367 kts | 290° |
| 2026-05-07 22:11 | 41.45139 | -74.46342 | 25894 ft | 371 kts | 292° |
| 2026-05-07 22:12 | 41.46445 | -74.49321 | 26263 ft | 374 kts | 293° |
| 2026-05-07 22:12 | 41.47779 | -74.52311 | 26649 ft | 376 kts | 293° |
| 2026-05-07 22:12 | 41.49118 | -74.55317 | 27019 ft | 378 kts | 292° |
| 2026-05-07 22:12 | 41.50452 | -74.58343 | 27389 ft | 380 kts | 292° |
| 2026-05-07 22:13 | 41.51770 | -74.61360 | 27732 ft | 382 kts | 292° |
| 2026-05-07 22:13 | 41.53100 | -74.64431 | 28113 ft | 383 kts | 292° |
| 2026-05-07 22:13 | 41.54430 | -74.67524 | 28477 ft | 385 kts | 292° |
| 2026-05-07 22:13 | 41.55761 | -74.70630 | 28821 ft | 387 kts | 292° |
| 2026-05-07 22:14 | 41.57100 | -74.73758 | 29157 ft | 389 kts | 292° |
| 2026-05-07 22:14 | 41.58447 | -74.76910 | 29485 ft | 390 kts | 292° |
| 2026-05-07 22:14 | 41.59799 | -74.80069 | 29789 ft | 392 kts | 292° |
| 2026-05-07 22:14 | 41.61151 | -74.83214 | 29879 ft | 384 kts | 291° |
| 2026-05-07 22:15 | 41.63768 | -74.89288 | 29879 ft | 373 kts | 291° |
| 2026-05-07 22:15 | 41.66333 | -74.95302 | 29880 ft | 372 kts | 291° |
| 2026-05-07 22:16 | 41.68864 | -75.01274 | 29894 ft | 372 kts | 291° |
| 2026-05-07 22:16 | 41.71418 | -75.07292 | 29915 ft | 372 kts | 291° |
| 2026-05-07 22:17 | 41.73969 | -75.13295 | 29904 ft | 370 kts | 291° |
| 2026-05-07 22:17 | 41.76503 | -75.19273 | 29894 ft | 369 kts | 291° |
| 2026-05-07 22:18 | 41.80286 | -75.28251 | 29882 ft | 368 kts | 291° |
| 2026-05-07 22:19 | 41.82806 | -75.34229 | 29882 ft | 368 kts | 291° |
| 2026-05-07 22:19 | 41.85308 | -75.40179 | 29882 ft | 368 kts | 291° |
| 2026-05-07 22:20 | 41.87815 | -75.46162 | 29905 ft | 368 kts | 291° |
| 2026-05-07 22:20 | 41.90317 | -75.52150 | 29893 ft | 368 kts | 291° |
| 2026-05-07 22:21 | 41.92818 | -75.58138 | 29886 ft | 367 kts | 291° |
| 2026-05-07 22:21 | 41.95314 | -75.64124 | 29887 ft | 367 kts | 291° |
| 2026-05-07 22:22 | 41.97786 | -75.70072 | 29887 ft | 367 kts | 291° |
| 2026-05-07 22:22 | 42.00277 | -75.76066 | 29886 ft | 367 kts | 291° |
| 2026-05-07 22:23 | 42.02757 | -75.82064 | 29920 ft | 366 kts | 290° |
| 2026-05-07 22:23 | 42.05226 | -75.88046 | 29916 ft | 365 kts | 290° |
| 2026-05-07 22:24 | 42.07688 | -75.94021 | 29908 ft | 364 kts | 290° |
| 2026-05-07 22:24 | 42.10140 | -75.99980 | 29900 ft | 364 kts | 290° |
| 2026-05-07 22:25 | 42.12575 | -76.05907 | 29895 ft | 364 kts | 290° |
| 2026-05-07 22:25 | 42.15027 | -76.11871 | 29892 ft | 363 kts | 290° |
| 2026-05-07 22:26 | 42.17158 | -76.17980 | 29935 ft | 358 kts | 285° |
| 2026-05-07 22:26 | 42.19127 | -76.24113 | 29936 ft | 355 kts | 285° |
| 2026-05-07 22:27 | 42.21069 | -76.30179 | 29915 ft | 351 kts | 285° |
| 2026-05-07 22:27 | 42.22998 | -76.36220 | 29914 ft | 350 kts | 285° |
| 2026-05-07 22:28 | 42.24924 | -76.42260 | 29909 ft | 350 kts | 285° |
| 2026-05-07 22:28 | 42.26849 | -76.48299 | 29898 ft | 350 kts | 285° |
| 2026-05-07 22:29 | 42.28770 | -76.54332 | 29951 ft | 349 kts | 285° |
| 2026-05-07 22:29 | 42.30665 | -76.60310 | 29935 ft | 348 kts | 285° |
| 2026-05-07 22:30 | 42.32565 | -76.66312 | 29932 ft | 347 kts | 285° |
| 2026-05-07 22:30 | 42.34453 | -76.72305 | 29930 ft | 346 kts | 284° |
| 2026-05-07 22:31 | 42.36340 | -76.78295 | 29919 ft | 346 kts | 285° |
| 2026-05-07 22:31 | 42.38210 | -76.84241 | 29914 ft | 345 kts | 285° |
| 2026-05-07 22:32 | 42.40085 | -76.90217 | 29945 ft | 344 kts | 284° |
| 2026-05-07 22:32 | 42.41948 | -76.96177 | 29940 ft | 343 kts | 284° |
| 2026-05-07 22:33 | 42.43804 | -77.02124 | 29935 ft | 343 kts | 284° |
| 2026-05-07 22:33 | 42.45655 | -77.08067 | 29930 ft | 342 kts | 284° |
| 2026-05-07 22:34 | 42.47500 | -77.14012 | 29926 ft | 342 kts | 284° |
| 2026-05-07 22:34 | 42.49345 | -77.19946 | 29918 ft | 341 kts | 284° |
| 2026-05-07 22:35 | 42.51165 | -77.25845 | 29961 ft | 341 kts | 284° |
| 2026-05-07 22:35 | 42.52998 | -77.31786 | 29938 ft | 341 kts | 284° |
| 2026-05-07 22:36 | 42.54829 | -77.37715 | 29917 ft | 341 kts | 284° |
| 2026-05-07 22:36 | 42.56648 | -77.43649 | 29908 ft | 341 kts | 283° |
| 2026-05-07 22:37 | 42.58463 | -77.49592 | 29903 ft | 341 kts | 283° |
| 2026-05-07 22:37 | 42.60277 | -77.55543 | 29897 ft | 341 kts | 283° |
| 2026-05-07 22:38 | 42.62094 | -77.61493 | 29926 ft | 341 kts | 283° |
| 2026-05-07 22:38 | 42.63914 | -77.67452 | 29909 ft | 342 kts | 283° |
| 2026-05-07 22:39 | 42.65712 | -77.73384 | 29904 ft | 342 kts | 283° |
| 2026-05-07 22:39 | 42.67464 | -77.79382 | 29897 ft | 341 kts | 282° |
| 2026-05-07 22:40 | 42.69135 | -77.85405 | 29926 ft | 340 kts | 282° |
| 2026-05-07 22:40 | 42.70796 | -77.91437 | 29935 ft | 341 kts | 282° |
| 2026-05-07 22:41 | 42.72470 | -77.97468 | 29962 ft | 341 kts | 282° |
| 2026-05-07 22:41 | 42.74142 | -78.03508 | 29950 ft | 341 kts | 282° |
| 2026-05-07 22:42 | 42.75812 | -78.09554 | 29945 ft | 342 kts | 282° |
| 2026-05-07 22:42 | 42.77476 | -78.15568 | 29936 ft | 342 kts | 282° |
| 2026-05-07 22:43 | 42.79154 | -78.21623 | 29938 ft | 342 kts | 282° |
| 2026-05-07 22:43 | 42.80826 | -78.27692 | 29942 ft | 342 kts | 282° |
| 2026-05-07 22:44 | 42.82487 | -78.33752 | 29938 ft | 342 kts | 282° |
| 2026-05-07 22:44 | 42.83319 | -78.36796 | 29754 ft | 343 kts | 282° |
| 2026-05-07 22:44 | 42.84150 | -78.39839 | 29522 ft | 342 kts | 282° |
| 2026-05-07 22:44 | 42.84981 | -78.42897 | 29235 ft | 346 kts | 282° |
| 2026-05-07 22:45 | 42.85808 | -78.45947 | 28958 ft | 348 kts | 283° |
| 2026-05-07 22:45 | 42.86651 | -78.49041 | 28682 ft | 347 kts | 283° |
| 2026-05-07 22:45 | 42.87496 | -78.52143 | 28347 ft | 357 kts | 283° |
| 2026-05-07 22:45 | 42.88371 | -78.55391 | 27881 ft | 370 kts | 283° |
| 2026-05-07 22:46 | 42.89267 | -78.58701 | 27377 ft | 373 kts | 283° |
| 2026-05-07 22:46 | 42.90172 | -78.62025 | 26911 ft | 377 kts | 283° |
| 2026-05-07 22:46 | 42.91101 | -78.65465 | 26423 ft | 392 kts | 284° |
| 2026-05-07 22:46 | 42.92049 | -78.68975 | 25877 ft | 395 kts | 284° |
| 2026-05-07 22:47 | 42.93028 | -78.72502 | 25391 ft | 401 kts | 288° |
| 2026-05-07 22:47 | 42.94502 | -78.75772 | 24746 ft | 411 kts | 302° |
| 2026-05-07 22:47 | 42.96319 | -78.78789 | 24126 ft | 411 kts | 303° |
| 2026-05-07 22:47 | 42.98138 | -78.81777 | 23510 ft | 409 kts | 303° |
| 2026-05-07 22:48 | 42.99934 | -78.84719 | 22861 ft | 407 kts | 303° |
| 2026-05-07 22:48 | 43.01731 | -78.87679 | 22280 ft | 404 kts | 303° |
| 2026-05-07 22:48 | 43.03515 | -78.90635 | 21799 ft | 402 kts | 303° |
| 2026-05-07 22:48 | 43.05281 | -78.93574 | 21202 ft | 398 kts | 303° |
| 2026-05-07 22:49 | 43.07033 | -78.96497 | 20623 ft | 395 kts | 303° |
| 2026-05-07 22:49 | 43.08769 | -78.99393 | 20030 ft | 392 kts | 303° |
| 2026-05-07 22:49 | 43.10493 | -79.02267 | 19444 ft | 389 kts | 304° |
| 2026-05-07 22:49 | 43.12208 | -79.05128 | 18824 ft | 387 kts | 304° |
| 2026-05-07 22:50 | 43.13908 | -79.07968 | 18243 ft | 385 kts | 305° |
| 2026-05-07 22:50 | 43.15596 | -79.10796 | 17583 ft | 382 kts | 305° |
| 2026-05-07 22:50 | 43.17272 | -79.13607 | 17010 ft | 380 kts | 305° |
| 2026-05-07 22:50 | 43.18921 | -79.16373 | 16439 ft | 378 kts | 305° |
| 2026-05-07 22:51 | 43.20583 | -79.19162 | 15879 ft | 377 kts | 306° |
| 2026-05-07 22:51 | 43.22233 | -79.21933 | 15324 ft | 375 kts | 306° |
| 2026-05-07 22:51 | 43.23875 | -79.24689 | 14861 ft | 370 kts | 306° |
| 2026-05-07 22:51 | 43.25471 | -79.27367 | 14709 ft | 353 kts | 306° |
| 2026-05-07 22:52 | 43.26985 | -79.29909 | 14273 ft | 337 kts | 306° |
| 2026-05-07 22:52 | 43.28444 | -79.32361 | 13758 ft | 327 kts | 306° |
| 2026-05-07 22:52 | 43.29424 | -79.33962 | 13371 ft | 322 kts | 310° |
| 2026-05-07 22:52 | 43.31127 | -79.35919 | 12792 ft | 318 kts | 324° |
| 2026-05-07 22:53 | 43.33060 | -79.37278 | 12235 ft | 313 kts | 331° |
| 2026-05-07 22:53 | 43.35012 | -79.38516 | 11800 ft | 303 kts | 330° |
| 2026-05-07 22:53 | 43.36887 | -79.39705 | 11411 ft | 292 kts | 330° |
| 2026-05-07 22:53 | 43.38702 | -79.40859 | 11026 ft | 284 kts | 330° |
| 2026-05-07 22:54 | 43.40475 | -79.41994 | 10642 ft | 280 kts | 330° |
| 2026-05-07 22:54 | 43.42236 | -79.43128 | 10267 ft | 279 kts | 330° |
| 2026-05-07 22:54 | 43.43993 | -79.44263 | 9891 ft | 278 kts | 330° |
| 2026-05-07 22:54 | 43.45744 | -79.45398 | 9457 ft | 278 kts | 330° |
| 2026-05-07 22:55 | 43.47490 | -79.46528 | 9024 ft | 276 kts | 330° |
| 2026-05-07 22:55 | 43.49221 | -79.47647 | 8589 ft | 273 kts | 331° |
| 2026-05-07 22:55 | 43.50915 | -79.48739 | 8157 ft | 264 kts | 331° |
| 2026-05-07 22:55 | 43.52527 | -79.49778 | 8008 ft | 245 kts | 331° |
| 2026-05-07 22:56 | 43.54006 | -79.50728 | 7849 ft | 228 kts | 331° |
| 2026-05-07 22:56 | 43.55420 | -79.51640 | 7442 ft | 222 kts | 330° |
| 2026-05-07 22:56 | 43.56817 | -79.52539 | 6967 ft | 220 kts | 331° |
| 2026-05-07 22:56 | 43.58233 | -79.53251 | 6471 ft | 222 kts | 348° |
| 2026-05-07 22:57 | 43.59779 | -79.53139 | 5972 ft | 226 kts | 13° |
| 2026-05-07 22:57 | 43.61173 | -79.52133 | 5484 ft | 229 kts | 39° |
| 2026-05-07 22:57 | 43.62291 | -79.50557 | 4978 ft | 230 kts | 44° |
| 2026-05-07 22:57 | 43.63383 | -79.48962 | 4499 ft | 228 kts | 44° |
| 2026-05-07 22:58 | 43.64472 | -79.47371 | 4073 ft | 227 kts | 44° |
| 2026-05-07 22:58 | 43.65544 | -79.45807 | 4014 ft | 224 kts | 44° |
| 2026-05-07 22:58 | 43.66621 | -79.44234 | 4015 ft | 226 kts | 44° |
| 2026-05-07 22:58 | 43.67698 | -79.42658 | 4016 ft | 226 kts | 43° |
| 2026-05-07 22:59 | 43.68779 | -79.41081 | 4019 ft | 226 kts | 43° |
| 2026-05-07 22:59 | 43.69856 | -79.39511 | 4016 ft | 225 kts | 43° |
| 2026-05-07 22:59 | 43.70937 | -79.37936 | 4018 ft | 225 kts | 43° |
| 2026-05-07 22:59 | 43.72113 | -79.36546 | 4014 ft | 220 kts | 21° |
| 2026-05-07 23:00 | 43.73571 | -79.36184 | 3870 ft | 211 kts | 348° |
| 2026-05-07 23:00 | 43.74890 | -79.36961 | 3529 ft | 207 kts | 324° |
| 2026-05-07 23:00 | 43.76044 | -79.38152 | 3208 ft | 208 kts | 320° |
| 2026-05-07 23:00 | 43.76933 | -79.39677 | 3027 ft | 206 kts | 290° |
| 2026-05-07 23:01 | 43.77032 | -79.41583 | 3008 ft | 194 kts | 264° |
| 2026-05-07 23:01 | 43.76810 | -79.43372 | 3005 ft | 184 kts | 261° |
| 2026-05-07 23:01 | 43.76552 | -79.45077 | 3055 ft | 180 kts | 260° |
| 2026-05-07 23:01 | 43.76231 | -79.46746 | 3002 ft | 178 kts | 248° |
| 2026-05-07 23:02 | 43.75485 | -79.48134 | 2872 ft | 183 kts | 230° |
| 2026-05-07 23:02 | 43.74609 | -79.49406 | 2654 ft | 181 kts | 230° |
| 2026-05-07 23:02 | 43.73759 | -79.50641 | 2426 ft | 176 kts | 230° |
| 2026-05-07 23:02 | 43.72938 | -79.51837 | 2186 ft | 166 kts | 229° |
| 2026-05-07 23:03 | 43.72161 | -79.52970 | 1965 ft | 157 kts | 230° |
| 2026-05-07 23:03 | 43.71446 | -79.53999 | 1770 ft | 143 kts | 229° |
| 2026-05-07 23:03 | 43.70780 | -79.54969 | 1502 ft | 136 kts | 231° |
| 2026-05-07 23:03 | 43.70151 | -79.55943 | 1274 ft | 137 kts | 232° |
| 2026-05-07 23:04 | 43.69480 | -79.56887 | 1153 ft | 139 kts | 225° |
| 2026-05-07 23:04 | 43.68791 | -79.57852 | 996 ft | 141 kts | 231° |
| 2026-05-07 23:04 | 43.68116 | -79.58852 | 784 ft | 142 kts | 231° |
| 2026-05-07 23:04 | 43.67437 | -79.59848 | 591 ft | 142 kts | 230° |
| 2026-05-07 23:05 | 43.66816 | -79.60758 | 563 ft | 109 kts | 226° |
| 2026-05-07 23:05 | 43.66456 | -79.61281 | 562 ft | 32 kts | 229° |
| 2026-05-07 23:05 | 43.66401 | -79.61508 | 564 ft | 18 kts | 251° |
| 2026-05-07 23:05 | 43.66371 | -79.61649 | 562 ft | 15 kts | 268° |
| 2026-05-07 23:06 | 43.66382 | -79.61693 | 564 ft | 0 kts | 301° |
| 2026-05-07 23:06 | 43.66387 | -79.61704 | 562 ft | 4 kts | 304° |
| 2026-05-07 23:06 | 43.66421 | -79.61751 | 561 ft | 10 kts | 317° |
| 2026-05-07 23:07 | 43.66487 | -79.61838 | 561 ft | 15 kts | 316° |
| 2026-05-07 23:07 | 43.66564 | -79.61940 | 559 ft | 15 kts | 317° |
| 2026-05-07 23:07 | 43.66631 | -79.62016 | 570 ft | 9 kts | 337° |
| 2026-05-07 23:07 | 43.66682 | -79.61993 | 569 ft | 10 kts | 46° |
| 2026-05-07 23:08 | 43.66747 | -79.61909 | 567 ft | 15 kts | 42° |
| 2026-05-07 23:08 | 43.66835 | -79.61800 | 568 ft | 19 kts | 42° |
| 2026-05-07 23:08 | 43.66942 | -79.61662 | 572 ft | 23 kts | 44° |
| 2026-05-07 23:08 | 43.67057 | -79.61518 | 573 ft | 21 kts | 41° |
| 2026-05-07 23:09 | 43.67165 | -79.61384 | 566 ft | 20 kts | 44° |
| 2026-05-07 23:09 | 43.67241 | -79.61261 | 562 ft | 15 kts | 33° |
| 2026-05-07 23:09 | 43.67327 | -79.61321 | 568 ft | 15 kts | 333° |
| 2026-05-07 23:09 | 43.67424 | -79.61293 | 563 ft | 15 kts | 20° |
| 2026-05-07 23:10 | 43.67478 | -79.61190 | 561 ft | 15 kts | 90° |
| 2026-05-07 23:10 | 43.67494 | -79.61044 | 561 ft | 16 kts | 74° |
| 2026-05-07 23:10 | 43.67547 | -79.60910 | 564 ft | 16 kts | 51° |
| 2026-05-07 23:10 | 43.67625 | -79.60795 | 563 ft | 16 kts | 47° |
| 2026-05-07 23:11 | 43.67712 | -79.60803 | 561 ft | 15 kts | 314° |
| 2026-05-07 23:11 | 43.67790 | -79.60906 | 561 ft | 14 kts | 315° |
| 2026-05-07 23:11 | 43.67851 | -79.60963 | 565 ft | 10 kts | 2° |
| 2026-05-07 23:11 | 43.67904 | -79.60911 | 565 ft | 9 kts | 46° |
| 2026-05-07 23:12 | 43.67932 | -79.60871 | 566 ft | 4 kts | 46° |
| 2026-05-07 23:12 | 43.67935 | -79.60867 | 564 ft | 0 kts | 46° |